createdAt,value
2022-09-12T00:03:55.930Z,5.30
2022-09-12T00:09:02.054Z,4.50
2022-09-12T00:14:05.344Z,3.90
2022-09-12T00:19:08.437Z,4.80
2022-09-12T00:24:11.687Z,6.40
2022-09-12T00:29:21.824Z,3.40
2022-09-12T00:34:24.519Z,6.60
2022-09-12T00:39:27.302Z,5.80
2022-09-12T00:44:29.908Z,5.80
2022-09-12T00:49:51.672Z,4.50
2022-09-12T00:55:20.267Z,3.40
2022-09-12T01:00:24.882Z,8.50
2022-09-12T01:05:28.952Z,5.20
2022-09-12T01:10:32.576Z,4.00
2022-09-12T01:15:37.705Z,5.20
2022-09-12T01:21:16.037Z,4.50
2022-09-12T01:26:49.521Z,6.40
2022-09-12T01:32:04.545Z,7.50
2022-09-12T01:37:18.013Z,4.20
2022-09-12T01:42:48.378Z,4.70
2022-09-12T01:48:00.571Z,5.60
2022-09-12T01:53:09.645Z,5.40
2022-09-12T01:58:26.389Z,3.50
2022-09-12T02:03:38.119Z,4.50
2022-09-12T02:08:45.597Z,6.70
2022-09-12T02:14:23.305Z,4.40
2022-09-12T02:19:34.103Z,4.60
2022-09-12T02:24:39.538Z,5.50
2022-09-12T02:29:44.658Z,4.00
2022-09-12T02:35:02.224Z,4.20
2022-09-12T02:40:07.177Z,5.20
2022-09-12T02:45:10.484Z,5.20
2022-09-12T02:50:13.277Z,5.20
2022-09-12T02:55:16.574Z,4.50
2022-09-12T03:00:19.240Z,4.50
2022-09-12T03:05:35.373Z,5.30
2022-09-12T03:10:43.148Z,4.60
2022-09-12T03:16:19.706Z,3.10
2022-09-12T03:21:33.503Z,6.00
2022-09-12T03:26:59.137Z,5.90
2022-09-12T03:32:02.258Z,4.10
2022-09-12T03:37:05.405Z,4.30
2022-09-12T03:42:08.166Z,2.90
2022-09-12T03:47:11.479Z,7.10
2022-09-12T03:52:14.692Z,7.10
2022-09-12T03:57:17.446Z,5.70
2022-09-12T04:02:20.236Z,5.80
2022-09-12T04:07:22.985Z,4.10
2022-09-12T04:12:26.186Z,5.90
2022-09-12T04:17:28.956Z,6.00
2022-09-12T04:22:32.809Z,6.40
2022-09-12T04:27:35.666Z,5.70
2022-09-12T04:32:38.405Z,5.70
2022-09-12T04:37:41.139Z,6.70
2022-09-12T04:42:43.807Z,6.00
2022-09-12T04:47:46.839Z,5.70
2022-09-12T04:52:51.780Z,6.10
2022-09-12T04:57:54.654Z,6.20
2022-09-12T05:02:57.466Z,6.70
2022-09-12T05:08:00.227Z,6.00
2022-09-12T05:13:02.880Z,5.70
2022-09-12T05:18:06.368Z,7.00
2022-09-12T05:23:09.104Z,6.80
2022-09-12T05:28:12.195Z,7.10
2022-09-12T05:33:15.464Z,6.90
2022-09-12T05:38:18.295Z,8.50
2022-09-12T05:43:21.126Z,7.40
2022-09-12T05:48:24.325Z,7.60
2022-09-12T05:53:29.265Z,7.40
2022-09-12T05:58:33.204Z,8.70
2022-09-12T06:03:44.646Z,7.50
2022-09-12T06:08:50.019Z,7.30
2022-09-12T06:13:52.990Z,11.20
2022-09-12T06:18:58.685Z,7.70
2022-09-12T06:24:02.086Z,12.00
2022-09-12T06:29:04.997Z,7.90
2022-09-12T06:34:10.537Z,8.70
2022-09-12T06:39:18.935Z,7.40
2022-09-12T06:44:22.487Z,9.20
2022-09-12T06:49:25.213Z,9.60
2022-09-12T06:54:27.909Z,6.10
2022-09-12T06:59:30.659Z,8.30
2022-09-12T07:04:36.772Z,6.30
2022-09-12T07:09:39.477Z,6.90
2022-09-12T07:14:42.117Z,7.20
2022-09-12T07:19:44.868Z,4.80
2022-09-12T07:24:47.975Z,7.50
2022-09-12T07:29:50.676Z,7.20
2022-09-12T07:34:55.609Z,5.60
2022-09-12T07:39:59.351Z,7.90
2022-09-12T07:45:02.052Z,7.50
2022-09-12T07:50:06.784Z,7.20
2022-09-12T07:55:09.621Z,6.20
2022-09-12T08:00:12.990Z,6.00
2022-09-12T08:05:15.731Z,5.10
2022-09-12T08:10:18.445Z,9.40
2022-09-12T08:15:21.736Z,6.20
2022-09-12T08:20:28.259Z,7.30
2022-09-12T08:25:31.175Z,5.60
2022-09-12T08:30:34.025Z,4.50
2022-09-12T08:35:36.747Z,6.80
2022-09-12T08:41:08.931Z,5.70
2022-09-12T08:46:19.623Z,5.40
2022-09-12T08:51:23.007Z,5.90
2022-09-12T08:56:31.464Z,6.90
2022-09-12T09:01:40.470Z,8.10
2022-09-12T09:07:14.552Z,6.60
2022-09-12T09:12:38.242Z,6.90
2022-09-12T09:17:50.178Z,7.50
2022-09-12T09:23:15.485Z,5.50
2022-09-12T09:28:25.974Z,5.10
2022-09-12T09:33:34.230Z,7.40
2022-09-12T09:38:59.943Z,6.30
2022-09-12T09:44:02.900Z,5.80
2022-09-12T09:49:05.821Z,5.30
2022-09-12T09:54:25.689Z,6.20
2022-09-12T09:59:31.322Z,4.60
2022-09-12T10:04:41.062Z,5.00
2022-09-12T10:10:06.166Z,5.20
2022-09-12T10:15:27.972Z,4.70
2022-09-12T10:20:40.542Z,6.00
2022-09-12T10:25:48.156Z,6.40
2022-09-12T10:30:56.187Z,5.40
2022-09-12T10:35:59.265Z,4.90
2022-09-12T10:41:10.329Z,4.20
2022-09-12T10:46:16.411Z,10.00
2022-09-12T10:51:25.204Z,4.40
2022-09-12T10:56:47.749Z,3.90
2022-09-12T11:02:01.726Z,4.50
2022-09-12T11:07:41.929Z,5.30
2022-09-12T11:13:04.682Z,4.80
2022-09-12T11:18:27.104Z,7.70
2022-09-12T11:24:22.031Z,4.90
2022-09-12T11:29:51.102Z,5.90
2022-09-12T11:35:10.391Z,6.90
2022-09-12T11:40:37.622Z,5.00
2022-09-12T11:45:45.291Z,6.40
2022-09-12T11:50:48.082Z,5.90
2022-09-12T11:55:58.012Z,4.90
2022-09-12T12:01:42.146Z,5.50
2022-09-12T12:07:12.097Z,5.00
2022-09-12T12:12:20.792Z,11.30
2022-09-12T12:17:24.917Z,4.60
2022-09-12T12:22:27.824Z,5.90
2022-09-12T12:27:51.281Z,7.40
2022-09-12T12:33:15.944Z,4.80
2022-09-12T12:38:36.257Z,4.10
2022-09-12T12:43:38.982Z,6.00
2022-09-12T12:48:52.995Z,6.10
2022-09-12T12:53:55.783Z,4.10
2022-09-12T12:59:05.464Z,3.50
2022-09-12T13:04:16.002Z,5.00
2022-09-12T13:09:30.928Z,2.70
2022-09-12T13:14:54.487Z,4.20
2022-09-12T13:20:27.740Z,2.90
2022-09-12T13:25:34.706Z,3.50
2022-09-12T13:30:58.649Z,5.70
2022-09-12T13:36:32.532Z,4.00
2022-09-12T13:42:22.063Z,4.50
2022-09-12T13:47:29.579Z,4.60
2022-09-12T13:52:34.598Z,3.40
2022-09-12T13:57:39.588Z,5.60
2022-09-12T14:02:42.375Z,3.20
2022-09-12T14:07:53.386Z,2.90
2022-09-12T14:12:57.327Z,3.60
2022-09-12T14:18:03.454Z,3.60
2022-09-12T14:23:30.266Z,7.10
2022-09-12T14:28:34.406Z,4.00
2022-09-12T14:33:54.305Z,4.70
2022-09-12T14:39:01.701Z,3.40
2022-09-12T14:44:16.778Z,2.90
2022-09-12T14:49:33.566Z,3.90
2022-09-12T14:54:37.919Z,6.90
2022-09-12T14:59:40.765Z,4.50
2022-09-12T15:04:49.150Z,3.00
2022-09-12T15:09:52.390Z,3.90
2022-09-12T15:15:22.867Z,5.70
2022-09-12T15:20:26.128Z,4.90
2022-09-12T15:25:28.821Z,4.60
2022-09-12T15:30:31.453Z,7.50
2022-09-12T15:35:34.173Z,4.60
2022-09-12T15:40:36.922Z,5.50
2022-09-12T15:45:41.480Z,6.60
2022-09-12T15:50:44.272Z,6.10
2022-09-12T15:55:46.978Z,7.00
2022-09-12T16:00:49.630Z,5.60
2022-09-12T16:06:01.553Z,6.40
2022-09-12T16:11:07.673Z,5.20
2022-09-12T16:16:10.766Z,5.20
2022-09-12T16:21:15.433Z,7.10
2022-09-12T16:26:18.674Z,4.50
2022-09-12T16:31:21.660Z,5.90
2022-09-12T16:36:24.411Z,5.50
2022-09-12T16:41:27.187Z,7.50
2022-09-12T16:46:30.061Z,7.00
2022-09-12T16:51:35.985Z,6.40
2022-09-12T16:56:38.694Z,5.60
2022-09-12T17:01:41.434Z,6.50
2022-09-12T17:06:45.256Z,6.70
2022-09-12T17:11:49.635Z,8.80
2022-09-12T17:16:52.559Z,5.00
2022-09-12T17:21:56.888Z,6.10
2022-09-12T17:26:59.595Z,7.00
2022-09-12T17:32:03.291Z,6.20
2022-09-12T17:37:05.980Z,5.20
2022-09-12T17:42:08.637Z,9.60
2022-09-12T17:47:11.616Z,19.30
2022-09-12T17:52:14.260Z,70.50
2022-09-12T17:57:17.018Z,43.30
2022-09-12T18:02:19.815Z,35.90
2022-09-12T18:07:22.503Z,52.80
2022-09-12T18:12:25.154Z,51.00
2022-09-12T18:17:27.922Z,43.20
2022-09-12T18:22:30.585Z,39.10
2022-09-12T18:27:33.285Z,34.80
2022-09-12T18:32:36.166Z,36.50
2022-09-12T18:37:41.038Z,35.10
2022-09-12T18:42:43.760Z,26.50
2022-09-12T18:47:46.655Z,15.70
2022-09-12T18:52:56.637Z,14.80
2022-09-12T18:58:01.762Z,11.30
2022-09-12T19:03:04.453Z,9.90
2022-09-12T19:08:07.141Z,11.10
2022-09-12T19:13:09.934Z,10.80
2022-09-12T19:18:13.204Z,8.00
2022-09-12T19:23:15.885Z,8.10
2022-09-12T19:28:18.615Z,5.50
2022-09-12T19:33:21.724Z,9.00
2022-09-12T19:38:24.649Z,4.90
2022-09-12T19:43:27.387Z,6.00
2022-09-12T19:48:30.661Z,6.70
2022-09-12T19:53:33.771Z,6.60
2022-09-12T19:58:41.217Z,7.40
2022-09-12T20:03:44.269Z,5.20
2022-09-12T20:08:47.088Z,7.10
2022-09-12T20:13:50.699Z,7.30
2022-09-12T20:19:08.511Z,7.50
2022-09-12T20:24:13.455Z,10.50
2022-09-12T20:29:16.863Z,7.90
2022-09-12T20:34:20.926Z,9.60
2022-09-12T20:39:23.726Z,7.40
2022-09-12T20:44:26.511Z,9.60
2022-09-12T20:49:29.193Z,9.30
2022-09-12T20:54:32.420Z,9.70
2022-09-12T20:59:35.233Z,12.00
2022-09-12T21:04:37.931Z,8.10
2022-09-12T21:09:40.617Z,10.70
2022-09-12T21:14:43.369Z,10.20
2022-09-12T21:19:46.088Z,12.60
2022-09-12T21:24:48.793Z,9.10
2022-09-12T21:29:51.528Z,8.70
2022-09-12T21:34:54.189Z,11.60
2022-09-12T21:39:59.048Z,11.80
2022-09-12T21:45:01.692Z,10.60
2022-09-12T21:50:06.861Z,10.00
2022-09-12T21:55:10.111Z,10.50
2022-09-12T22:00:16.542Z,10.10
2022-09-12T22:05:21.361Z,10.10
2022-09-12T22:10:25.140Z,9.60
2022-09-12T22:15:43.069Z,9.40
2022-09-12T22:20:45.939Z,10.20
2022-09-12T22:25:48.572Z,10.90
2022-09-12T22:30:51.883Z,7.70
2022-09-12T22:35:54.587Z,7.90
2022-09-12T22:40:59.204Z,9.60
2022-09-12T22:46:02.029Z,9.80
2022-09-12T22:51:05.314Z,8.10
2022-09-12T22:56:08.408Z,9.20
2022-09-12T23:01:11.641Z,8.10
2022-09-12T23:06:14.419Z,7.40
2022-09-12T23:11:19.227Z,6.80
2022-09-12T23:16:24.886Z,8.80
2022-09-12T23:21:29.970Z,9.30
2022-09-12T23:26:32.679Z,11.20
2022-09-12T23:31:35.372Z,8.80
2022-09-12T23:36:38.231Z,7.90
2022-09-12T23:41:40.924Z,8.20
2022-09-12T23:46:43.562Z,9.40
2022-09-12T23:51:46.277Z,7.90
2022-09-12T23:56:49.259Z,7.60
